Time;durP1;ratioP1;P1;durP2;ratioP2;P2;SDS_P1;SDS_P2;PMS_P1;PMS_P2;Temp;Humidity;BMP_temperature;BMP_pressure;BME280_temperature;BME280_humidity;BME280_pressure;Samples;Min_cycle;Max_cycle;Signal;HPM_P1;HPM_P2
2023/09/11 00:03:17;;;;;;;6.75;6.20;;;;;;;17.04;89.12;152975.47;10501684;28;20053;-74
2023/09/11 00:08:19;;;;;;;7.82;7.15;;;;;;;17.03;89.00;152971.59;10484402;28;20049;-73
2023/09/11 00:13:21;;;;;;;6.97;6.38;;;;;;;17.13;88.54;152997.53;10483490;28;20041;-74
2023/09/11 00:18:26;;;;;;;6.72;6.22;;;;;;;17.04;89.08;152974.19;10503475;28;20424;-74
2023/09/11 00:23:28;;;;;;;7.20;6.60;;;;;;;17.04;89.23;152974.19;10500217;28;20047;-74
2023/09/11 00:28:30;;;;;;;7.45;6.95;;;;;;;16.85;90.12;152927.50;10501188;28;20058;-75
2023/09/11 00:33:31;;;;;;;7.85;7.30;;;;;;;16.88;90.33;152935.28;10487958;22;20041;-69
2023/09/11 00:38:33;;;;;;;7.55;6.95;;;;;;;16.83;91.06;152922.34;10467186;28;20044;-69
2023/09/11 00:43:35;;;;;;;7.07;6.47;;;;;;;16.42;93.03;152817.22;10480407;28;20060;-69
2023/09/11 00:48:37;;;;;;;6.63;6.03;;;;;;;16.35;93.90;152799.09;10497576;28;20087;-69
2023/09/11 00:53:39;;;;;;;6.85;6.30;;;;;;;16.37;94.08;152804.25;10479588;28;20054;-69
2023/09/11 00:58:43;;;;;;;7.78;7.28;;;;;;;16.56;93.17;152852.25;10478859;28;20071;-69
2023/09/11 01:03:44;;;;;;;7.68;6.97;;;;;;;16.47;93.91;152828.88;10479257;28;20076;-70
2023/09/11 01:08:46;;;;;;;7.40;6.70;;;;;;;16.38;94.06;152806.88;10479567;28;20500;-69
2023/09/11 01:13:48;;;;;;;7.53;7.03;;;;;;;16.41;93.86;152814.63;10479221;28;20496;-68
2023/09/11 01:18:52;;;;;;;7.90;7.30;;;;;;;16.45;93.26;152825.00;10497632;28;20040;-69
2023/09/11 01:24:32;;;;;;;7.60;7.00;;;;;;;16.28;94.44;152780.91;10479504;28;20068;-69
2023/09/11 01:29:35;;;;;;;7.63;7.00;;;;;;;15.95;96.81;152697.97;10329117;28;20046;-69
2023/09/11 01:34:37;;;;;;;7.57;6.88;;;;;;;16.18;96.12;152755.00;10328547;28;20046;-68
2023/09/11 01:39:39;;;;;;;7.88;7.18;;;;;;;15.94;97.68;152694.03;10312300;28;20085;-68
2023/09/11 01:44:44;;;;;;;8.50;7.55;;;;;;;15.79;97.57;152656.47;10312283;28;20418;-69
2023/09/11 01:49:47;;;;;;;7.28;6.78;;;;;;;15.79;97.78;152657.75;10328234;28;20077;-69
2023/09/11 01:54:50;;;;;;;7.47;6.97;;;;;;;15.98;97.04;152705.75;10312494;28;20050;-71
2023/09/11 01:59:52;;;;;;;7.03;6.53;;;;;;;15.66;98.00;152624.06;10440434;28;20049;-71
2023/09/11 02:04:54;;;;;;;7.45;6.80;;;;;;;15.61;98.11;152612.34;10478348;28;20417;-71
2023/09/11 02:09:56;;;;;;;7.57;6.97;;;;;;;15.70;98.03;152633.16;10481083;28;20494;-71
2023/09/11 02:14:57;;;;;;;7.38;6.78;;;;;;;15.81;97.27;152661.69;10503560;28;20040;-71
2023/09/11 02:19:59;;;;;;;6.75;6.15;;;;;;;15.63;98.35;152617.56;10503302;28;20036;-71
2023/09/11 02:25:01;;;;;;;6.43;5.93;;;;;;;15.55;98.50;152595.53;10485159;28;20040;-72
2023/09/11 02:30:03;;;;;;;7.00;6.30;;;;;;;15.64;97.61;152620.19;10484875;28;20476;-72
2023/09/11 02:35:05;;;;;;;7.43;6.82;;;;;;;15.51;97.81;152586.44;10503152;28;20098;-72
2023/09/11 02:40:07;;;;;;;7.00;6.50;;;;;;;15.62;97.55;152614.94;10484608;28;20064;-71
2023/09/11 02:45:09;;;;;;;7.72;7.03;;;;;;;15.51;98.13;152585.16;10484743;28;20044;-72
2023/09/11 02:50:11;;;;;;;7.35;6.78;;;;;;;15.52;98.58;152589.03;10484164;28;20040;-72
2023/09/11 02:55:13;;;;;;;8.57;7.78;;;;;;;15.62;97.18;152613.63;10502863;28;20127;-72
2023/09/11 03:00:14;;;;;;;8.13;7.30;;;;;;;15.52;97.63;152589.03;10502351;28;20044;-70
2023/09/11 03:05:16;;;;;;;7.63;7.03;;;;;;;15.12;100.00;152487.97;10483543;28;20079;-70
2023/09/11 03:10:18;;;;;;;8.35;7.25;;;;;;;15.00;100.00;152456.88;10483236;28;20048;-70
2023/09/11 03:15:26;;;;;;;7.70;7.10;;;;;;;15.07;100.00;152475.03;10483134;28;20044;-70
2023/09/11 03:20:28;;;;;;;8.20;7.70;;;;;;;15.12;100.00;152487.97;10482854;28;20413;-70
2023/09/11 03:25:37;;;;;;;7.22;6.63;;;;;;;15.15;100.00;152494.47;10482726;28;20102;-70
2023/09/11 03:30:39;;;;;;;8.30;7.60;;;;;;;15.13;100.00;152490.53;10482417;28;20040;-70
2023/09/11 03:35:41;;;;;;;8.23;7.53;;;;;;;15.21;99.97;152510.00;10500502;28;20448;-71
2023/09/11 03:40:46;;;;;;;8.38;7.78;;;;;;;15.25;100.00;152520.34;10501417;28;20052;-72
2023/09/11 03:45:48;;;;;;;8.55;7.65;;;;;;;15.02;99.90;152462.06;10500889;28;20044;-70
2023/09/11 03:50:53;;;;;;;8.90;8.10;;;;;;;14.94;100.00;152440.03;10465527;28;20044;-71
2023/09/11 03:55:55;;;;;;;9.25;8.45;;;;;;;15.05;100.00;152468.53;10481410;28;20056;-71
2023/09/11 04:00:58;;;;;;;9.20;8.40;;;;;;;15.17;100.00;152499.63;10482163;28;20098;-71
2023/09/11 04:06:00;;;;;;;9.45;8.65;;;;;;;15.09;100.00;152480.19;10464764;28;20044;-71
2023/09/11 04:11:02;;;;;;;9.30;8.38;;;;;;;14.87;100.00;152423.19;10482047;28;20051;-71
2023/09/11 04:16:05;;;;;;;8.93;8.27;;;;;;;14.83;100.00;152414.16;10480544;28;20041;-70
2023/09/11 04:21:07;;;;;;;8.23;7.53;;;;;;;14.67;100.00;152371.41;10498380;28;20417;-70
2023/09/11 04:26:11;;;;;;;9.30;8.70;;;;;;;15.08;100.00;152477.59;10480704;28;20053;-70
2023/09/11 04:31:12;;;;;;;9.68;8.98;;;;;;;15.14;100.00;152493.16;10479774;28;20052;-70
2023/09/11 04:36:14;;;;;;;9.80;8.98;;;;;;;14.77;100.00;152398.59;10479545;28;20052;-70
2023/09/11 04:41:16;;;;;;;9.90;8.98;;;;;;;14.83;100.00;152412.81;10479909;28;20099;-70
2023/09/11 04:46:19;;;;;;;10.95;10.15;;;;;;;15.17;100.00;152499.63;10482062;28;20051;-69
2023/09/11 04:51:21;;;;;;;10.23;9.52;;;;;;;14.90;100.00;152430.97;10497679;28;20328;-69
2023/09/11 04:56:23;;;;;;;11.00;9.93;;;;;;;14.79;100.00;152403.78;10463181;28;20041;-69
2023/09/11 05:01:26;;;;;;;10.88;9.32;;;;;;;15.00;100.00;152456.88;10479819;28;20076;-70
2023/09/11 05:06:28;;;;;;;13.13;11.48;;;;;;;15.23;100.00;152513.84;10479085;28;20053;-69
2023/09/11 05:11:30;;;;;;;10.48;9.68;;;;;;;14.87;100.00;152423.19;10479150;28;20041;-69
2023/09/11 05:16:32;;;;;;;10.70;9.90;;;;;;;14.92;100.00;152434.84;10479428;28;20135;-69
2023/09/11 05:21:36;;;;;;;11.65;10.75;;;;;;;15.19;100.00;152504.84;10498192;28;20041;-69
2023/09/11 05:26:38;;;;;;;10.10;9.23;;;;;;;15.09;100.00;152480.19;10498869;28;20051;-70
2023/09/11 05:31:40;;;;;;;10.30;9.30;;;;;;;15.20;100.00;152507.41;10496938;28;20482;-69
2023/09/11 05:36:42;;;;;;;11.15;10.35;;;;;;;15.29;100.00;152529.44;10497128;28;20051;-69
2023/09/11 05:41:43;;;;;;;11.18;10.38;;;;;;;15.44;100.00;152567.00;10497452;28;20041;-69
2023/09/11 05:46:45;;;;;;;10.27;9.48;;;;;;;15.63;100.00;152616.28;10503969;28;20418;-69
2023/09/11 05:51:47;;;;;;;11.52;10.73;;;;;;;15.77;100.00;152651.31;10505934;28;20120;-69
2023/09/11 05:56:50;;;;;;;9.95;9.02;;;;;;;16.06;100.00;152725.16;10505869;28;20427;-69
2023/09/11 06:01:51;;;;;;;9.65;8.88;;;;;;;16.67;94.56;152879.47;10487235;28;20072;-69
2023/09/11 06:06:53;;;;;;;7.88;7.28;;;;;;;16.93;94.11;152946.97;10506535;28;20044;-70
2023/09/11 06:11:55;;;;;;;10.70;9.90;;;;;;;17.03;91.67;152972.91;10506589;28;20075;-69
2023/09/11 06:16:57;;;;;;;9.13;8.40;;;;;;;17.21;89.56;153017.00;10506335;28;20068;-70
2023/09/11 06:21:59;;;;;;;8.95;8.25;;;;;;;17.57;87.86;153110.41;10505075;28;20115;-69
2023/09/11 06:27:03;;;;;;;8.90;8.20;;;;;;;17.60;87.51;153118.22;10505282;28;20044;-70
2023/09/11 06:32:06;;;;;;;9.90;9.15;;;;;;;17.97;86.00;153211.69;10504445;28;20119;-70
2023/09/11 06:37:11;;;;;;;8.65;8.05;;;;;;;18.01;84.87;153222.09;10517669;22;20048;-73
2023/09/11 06:42:24;;;;;;;9.30;8.60;;;;;;;18.22;85.18;153275.34;10505062;28;20037;-73
2023/09/11 06:47:26;;;;;;;9.00;8.40;;;;;;;18.57;80.68;153363.63;10505161;28;20087;-73
2023/09/11 06:52:28;;;;;;;34.30;9.65;;;;;;;18.62;81.96;153377.91;10486736;28;20408;-73
2023/09/11 06:57:30;;;;;;;8.40;7.80;;;;;;;18.92;80.18;153453.31;10504279;28;20128;-73
2023/09/11 07:02:31;;;;;;;10.15;9.05;;;;;;;19.08;78.12;153493.53;10487416;28;20051;-72
2023/09/11 07:07:33;;;;;;;9.52;8.82;;;;;;;19.46;75.76;153591.00;10504665;28;20517;-71
2023/09/11 07:12:35;;;;;;;9.30;8.45;;;;;;;19.71;75.44;153653.44;10503974;28;20041;-72
2023/09/11 07:17:37;;;;;;;7.95;7.35;;;;;;;19.69;75.66;153649.50;10505803;28;20037;-72
2023/09/11 07:22:39;;;;;;;8.68;8.05;;;;;;;20.14;72.26;153765.22;10504773;28;20086;-72
2023/09/11 07:27:40;;;;;;;8.35;7.78;;;;;;;19.96;74.80;153717.09;10504363;28;20044;-72
2023/09/11 07:32:42;;;;;;;8.77;8.15;;;;;;;20.27;71.50;153796.38;10485496;28;20144;-72
2023/09/11 07:37:44;;;;;;;8.35;7.75;;;;;;;20.52;71.16;153860.16;10502824;28;20075;-72
2023/09/11 07:42:46;;;;;;;9.15;8.43;;;;;;;20.52;70.15;153861.47;10502969;28;20041;-73
2023/09/11 07:47:47;;;;;;;8.10;7.50;;;;;;;20.77;69.56;153923.91;10484241;28;20131;-73
2023/09/11 07:52:50;;;;;;;7.68;7.15;;;;;;;20.82;70.23;153936.91;10501589;28;20040;-73
2023/09/11 07:57:52;;;;;;;9.23;8.48;;;;;;;20.95;68.67;153969.41;10501854;28;20047;-73
2023/09/11 08:02:54;;;;;;;7.40;6.80;;;;;;;21.22;68.48;154038.34;10502568;28;20040;-73
2023/09/11 08:07:58;;;;;;;7.93;7.07;;;;;;;21.45;67.74;154096.94;10483639;28;20132;-72
2023/09/11 08:13:00;;;;;;;8.20;7.57;;;;;;;21.51;67.06;154113.81;10502382;28;20063;-72
2023/09/11 08:18:02;;;;;;;7.85;7.25;;;;;;;21.63;66.02;154143.78;10501626;28;20043;-73
2023/09/11 08:23:04;;;;;;;8.23;7.57;;;;;;;22.03;65.98;154245.28;10482914;28;20055;-73
2023/09/11 08:28:06;;;;;;;8.38;7.57;;;;;;;22.47;64.45;154358.59;10500948;28;20456;-73
2023/09/11 08:33:07;;;;;;;7.32;6.63;;;;;;;22.50;64.58;154365.09;10500981;28;20043;-73
2023/09/11 08:38:09;;;;;;;7.47;6.88;;;;;;;22.92;62.82;154473.22;10482852;28;20076;-73
2023/09/11 08:43:11;;;;;;;7.55;6.80;;;;;;;23.05;62.91;154505.78;10501389;28;20040;-73
2023/09/11 08:48:14;;;;;;;6.57;6.07;;;;;;;23.34;61.04;154580.03;10501300;28;20106;-73
2023/09/11 08:53:18;;;;;;;6.90;6.25;;;;;;;23.26;61.96;154559.19;10482259;28;20071;-74
2023/09/11 08:58:23;;;;;;;7.47;6.97;;;;;;;23.84;59.91;154707.75;10500437;28;20040;-73
2023/09/11 09:03:26;;;;;;;7.38;6.78;;;;;;;23.95;59.76;154736.44;10482136;28;20067;-73
2023/09/11 09:08:29;;;;;;;6.57;6.07;;;;;;;24.31;57.04;154827.66;10500719;28;20071;-72
2023/09/11 09:13:35;;;;;;;7.35;6.85;;;;;;;24.84;56.50;154963.28;10480976;28;20066;-73
2023/09/11 09:18:36;;;;;;;;;;;;;;;25.06;55.78;155020.66;10500856;28;20489;-73
2023/09/11 09:23:39;;;;;;;6.20;5.75;;;;;;;24.90;55.74;154980.22;10508103;28;20333;-74
2023/09/11 09:28:44;;;;;;;6.90;6.20;;;;;;;25.76;53.77;155198.06;10508818;28;20111;-73
2023/09/11 09:33:46;;;;;;;7.63;6.25;;;;;;;26.20;51.80;155311.63;10507367;28;20029;-73
2023/09/11 09:38:49;;;;;;;7.05;6.45;;;;;;;26.71;51.59;155440.91;10507551;28;20048;-73
2023/09/11 09:43:54;;;;;;;6.93;5.72;;;;;;;27.25;51.03;155580.63;10507080;28;20032;-73
2023/09/11 09:48:58;;;;;;;8.13;6.45;;;;;;;28.06;46.58;155788.31;10507639;28;20387;-72
2023/09/11 09:54:00;;;;;;;8.07;6.18;;;;;;;28.29;45.37;155845.78;10507207;28;20032;-73
2023/09/11 09:59:02;;;;;;;7.82;5.32;;;;;;;28.44;45.08;155885.06;10488224;28;20049;-73
2023/09/11 10:04:15;;;;;;;5.97;5.47;;;;;;;29.17;44.89;156071.97;10506827;28;20045;-73
2023/09/11 10:09:19;;;;;;;6.47;5.95;;;;;;;29.39;43.49;156128.19;10488797;28;20559;-73
2023/09/11 10:14:23;;;;;;;6.37;5.87;;;;;;;29.94;42.55;156268.19;10506335;28;20048;-73
2023/09/11 10:19:28;;;;;;;6.13;5.68;;;;;;;30.12;41.92;156315.25;10489745;28;20072;-73
2023/09/11 10:24:30;;;;;;;6.10;5.60;;;;;;;30.28;39.98;156355.81;10506455;28;20040;-73
2023/09/11 10:29:51;;;;;;;5.63;5.22;;;;;;;30.78;39.76;156485.41;10505116;28;20055;-73
2023/09/11 10:34:53;;;;;;;5.60;5.20;;;;;;;30.77;38.75;156481.44;10507186;28;20131;-72
2023/09/11 10:39:57;;;;;;;5.03;4.63;;;;;;;31.07;38.21;156559.94;10505724;28;20079;-73
2023/09/11 10:44:59;;;;;;;5.43;4.97;;;;;;;31.06;38.79;156557.34;10504698;28;20060;-72
2023/09/11 10:50:00;;;;;;;5.25;4.85;;;;;;;31.43;37.38;156651.59;10504752;28;20067;-72
2023/09/11 10:55:03;;;;;;;5.07;4.65;;;;;;;31.62;35.88;156701.38;10506946;28;20079;-74
2023/09/11 11:00:08;;;;;;;4.47;4.07;;;;;;;31.83;33.94;156755.09;10487804;28;20052;-73
2023/09/11 11:05:15;;;;;;;4.35;4.05;;;;;;;32.16;33.01;156838.84;10505622;28;20048;-73
2023/09/11 11:10:19;;;;;;;4.57;4.20;;;;;;;31.56;33.72;156685.63;10505575;28;20395;-74
2023/09/11 11:15:23;;;;;;;6.23;3.80;;;;;;;31.62;33.37;156700.06;10477418;28;20037;-73
2023/09/11 11:20:26;;;;;;;4.53;3.30;;;;;;;31.69;33.77;156717.06;10459739;28;20282;-75
2023/09/11 11:25:28;;;;;;;4.47;3.35;;;;;;;31.51;33.38;156671.25;10492284;28;20053;-74
2023/09/11 11:30:34;;;;;;;6.38;3.78;;;;;;;31.68;34.70;156715.75;10493056;28;20068;-75
2023/09/11 11:35:36;;;;;;;4.32;4.00;;;;;;;32.06;35.69;156814.00;10490435;28;20073;-74
2023/09/11 11:40:38;;;;;;;5.25;4.70;;;;;;;31.87;35.27;156765.53;10462185;28;20049;-73
2023/09/11 11:45:47;;;;;;;6.57;5.13;;;;;;;31.81;34.57;156749.78;10461612;28;20068;-75
2023/09/11 11:50:49;;;;;;;4.28;3.92;;;;;;;31.81;35.18;156748.47;10444035;28;20479;-73
2023/09/11 11:55:54;;;;;;;4.25;3.85;;;;;;;32.32;34.07;156880.78;10494626;28;20075;-73
2023/09/11 12:01:04;;;;;;;4.88;4.47;;;;;;;31.38;35.35;156638.50;10504802;28;20037;-72
2023/09/11 12:06:06;;;;;;;3.85;3.53;;;;;;;32.10;34.48;156824.47;10468941;28;20494;-72
2023/09/11 12:11:09;;;;;;;4.00;3.70;;;;;;;31.91;34.54;156774.69;10490168;28;20481;-73
2023/09/11 12:16:10;;;;;;;5.05;3.92;;;;;;;31.44;35.18;156654.25;10443638;28;20506;-73
2023/09/11 12:21:12;;;;;;;4.63;4.22;;;;;;;30.75;35.54;156477.53;10443223;28;20045;-72
2023/09/11 12:26:14;;;;;;;4.35;4.05;;;;;;;30.98;36.13;156535.09;10460932;28;20052;-73
2023/09/11 12:31:18;;;;;;;3.92;3.60;;;;;;;30.92;36.11;156520.72;10475727;28;20040;-73
2023/09/11 12:36:20;;;;;;;4.30;3.90;;;;;;;30.67;36.87;156457.84;10491808;22;20083;-71
2023/09/11 12:41:24;;;;;;;5.22;4.28;;;;;;;30.56;36.58;156429.09;10458064;28;20406;-71
2023/09/11 12:46:26;;;;;;;4.65;4.20;;;;;;;30.50;35.85;156413.34;10421931;28;20095;-70
2023/09/11 12:51:31;;;;;;;4.45;4.07;;;;;;;30.52;37.01;156417.31;10390844;28;20038;-70
2023/09/11 12:56:33;;;;;;;4.60;4.30;;;;;;;30.22;37.28;156341.44;10357419;28;20050;-71
2023/09/11 13:01:34;;;;;;;4.32;3.90;;;;;;;30.18;37.81;156330.97;10375283;28;20100;-71
2023/09/11 13:06:36;;;;;;;4.43;4.13;;;;;;;29.89;37.40;156257.72;10375323;28;20042;-71
2023/09/11 13:11:38;;;;;;;4.18;3.78;;;;;;;29.78;37.43;156227.63;10374180;28;20034;-71
2023/09/11 13:16:42;;;;;;;3.85;3.58;;;;;;;29.64;37.62;156192.31;10375189;28;20052;-71
2023/09/11 13:21:44;;;;;;;4.38;3.97;;;;;;;29.69;37.12;156205.38;10374049;28;20049;-71
2023/09/11 13:26:46;;;;;;;4.78;3.90;;;;;;;29.65;37.88;156194.91;10374406;28;20042;-71
2023/09/11 13:31:47;;;;;;;4.53;3.75;;;;;;;29.63;38.46;156191.00;10374755;28;20074;-71
2023/09/11 13:36:53;;;;;;;5.10;3.80;;;;;;;29.76;37.28;156222.41;10374164;28;20075;-71
2023/09/11 13:41:54;;;;;;;4.22;3.80;;;;;;;29.57;38.49;156175.34;10356614;28;20034;-71
2023/09/11 13:46:56;;;;;;;3.78;3.50;;;;;;;29.60;38.53;156183.16;10373576;28;20062;-71
2023/09/11 13:51:58;;;;;;;4.07;3.70;;;;;;;29.54;38.24;156167.44;10373788;28;20048;-71
2023/09/11 13:57:00;;;;;;;4.38;3.97;;;;;;;29.74;37.36;156218.44;10374395;28;20049;-71
2023/09/11 14:02:02;;;;;;;3.90;3.60;;;;;;;29.62;37.27;156188.41;10373534;28;20045;-71
2023/09/11 14:07:04;;;;;;;4.18;3.63;;;;;;;29.76;37.08;156222.41;10379224;28;20096;-70
2023/09/11 14:12:06;;;;;;;4.35;3.95;;;;;;;29.61;37.75;156185.75;10380791;28;20038;-70
2023/09/11 14:17:08;;;;;;;5.28;4.15;;;;;;;29.74;37.07;156217.16;10383583;28;20042;-70
2023/09/11 14:22:10;;;;;;;3.95;3.65;;;;;;;29.46;38.67;156145.22;10381397;28;20072;-70
2023/09/11 14:27:12;;;;;;;3.92;3.63;;;;;;;29.51;38.40;156159.56;10380618;28;20054;-69
2023/09/11 14:32:14;;;;;;;4.03;3.72;;;;;;;29.34;39.35;156116.44;10380501;28;20053;-69
2023/09/11 14:37:16;;;;;;;4.15;3.85;;;;;;;29.40;39.72;156130.84;10363099;28;20117;-69
2023/09/11 14:42:24;;;;;;;4.05;3.75;;;;;;;29.01;41.35;156030.19;10381732;28;20088;-70
2023/09/11 14:47:27;;;;;;;4.53;4.13;;;;;;;29.03;41.29;156035.38;10379377;28;20046;-70
2023/09/11 14:52:29;;;;;;;9.48;3.92;;;;;;;29.03;39.50;156036.69;10362637;28;20056;-70
2023/09/11 14:57:31;;;;;;;4.47;4.07;;;;;;;28.79;40.91;155975.22;10362038;28;20100;-70
2023/09/11 15:02:33;;;;;;;4.05;3.72;;;;;;;28.74;39.46;155960.88;10381210;28;20041;-69
2023/09/11 15:07:35;;;;;;;3.97;3.67;;;;;;;28.73;39.70;155958.22;10379248;28;20076;-70
2023/09/11 15:12:36;;;;;;;4.05;3.65;;;;;;;28.96;39.73;156018.41;10378326;28;20050;-69
2023/09/11 15:17:38;;;;;;;4.45;4.05;;;;;;;29.05;38.52;156041.94;10378174;28;20121;-70
2023/09/11 15:22:40;;;;;;;4.68;4.20;;;;;;;28.97;39.52;156021.03;10378875;28;20042;-70
2023/09/11 15:27:42;;;;;;;3.72;3.53;;;;;;;28.89;39.93;156001.34;10377852;28;20050;-69
2023/09/11 15:32:44;;;;;;;4.00;3.70;;;;;;;28.96;39.69;156018.41;10359979;28;20093;-69
2023/09/11 15:37:45;;;;;;;4.03;3.72;;;;;;;28.88;39.40;155998.75;10377385;28;20392;-69
2023/09/11 15:42:48;;;;;;;4.68;3.95;;;;;;;28.82;39.85;155981.75;10376720;28;20053;-69
2023/09/11 15:47:50;;;;;;;4.43;4.05;;;;;;;28.60;39.34;155925.59;10377685;28;20136;-69
2023/09/11 15:52:52;;;;;;;3.60;3.30;;;;;;;28.51;39.92;155902.03;10377513;28;20046;-69
2023/09/11 15:57:54;;;;;;;4.50;3.50;;;;;;;28.45;40.31;155887.66;10360283;28;20046;-70
2023/09/11 16:02:56;;;;;;;4.45;4.05;;;;;;;28.35;40.99;155862.84;10378446;28;20046;-70
2023/09/11 16:07:58;;;;;;;4.10;3.80;;;;;;;28.53;40.59;155908.59;10376053;28;20507;-69
2023/09/11 16:13:01;;;;;;;5.13;3.20;;;;;;;28.43;40.99;155881.16;10376283;28;20495;-69
2023/09/11 16:18:04;;;;;;;4.55;4.25;;;;;;;28.27;41.41;155840.59;10377670;28;20046;-69
2023/09/11 16:23:07;;;;;;;4.00;3.70;;;;;;;28.29;41.53;155847.16;10376468;28;20442;-69
2023/09/11 16:28:08;;;;;;;4.35;3.95;;;;;;;28.40;41.40;155874.63;10375286;28;20042;-70
2023/09/11 16:33:10;;;;;;;4.10;3.70;;;;;;;28.10;42.63;155797.47;10375890;28;20041;-69
2023/09/11 16:38:12;;;;;;;6.03;4.30;;;;;;;27.99;42.89;155768.75;10378214;28;20049;-69
2023/09/11 16:43:14;;;;;;;4.45;4.05;;;;;;;27.84;43.45;155732.16;10375317;28;20451;-70
2023/09/11 16:48:16;;;;;;;5.55;5.15;;;;;;;27.66;47.24;155686.38;10375730;28;20459;-69
2023/09/11 16:53:17;;;;;;;4.55;4.15;;;;;;;27.28;50.06;155587.16;10374868;28;20042;-69
2023/09/11 16:58:19;;;;;;;4.43;4.05;;;;;;;26.94;51.46;155500.94;10389269;28;20036;-69
2023/09/11 17:03:21;;;;;;;4.60;4.30;;;;;;;26.72;53.44;155443.50;10449527;28;20494;-69
2023/09/11 17:08:23;;;;;;;4.63;4.22;;;;;;;26.36;54.86;155353.41;10456888;28;20048;-69
2023/09/11 17:13:25;;;;;;;6.90;4.72;;;;;;;26.24;56.46;155320.75;10456614;28;20041;-68
2023/09/11 17:18:26;;;;;;;5.15;4.65;;;;;;;26.11;56.45;155288.13;10421639;28;20487;-69
2023/09/11 17:23:28;;;;;;;5.68;5.07;;;;;;;25.90;56.71;155235.97;10414828;28;20065;-69
2023/09/11 17:28:30;;;;;;;5.20;4.70;;;;;;;25.56;57.86;155148.50;10414737;28;20045;-69
2023/09/11 17:33:32;;;;;;;9.73;7.32;;;;;;;25.40;58.19;155108.06;10433721;28;20069;-69
2023/09/11 17:38:34;;;;;;;19.15;16.30;;;;;;;25.03;58.87;155012.81;10456906;28;20414;-69
2023/09/11 17:43:36;;;;;;;14.23;12.95;;;;;;;24.95;60.24;154990.66;10384865;28;20042;-69
2023/09/11 17:48:38;;;;;;;13.82;9.15;;;;;;;24.73;60.56;154935.88;10385115;28;20619;-69
2023/09/11 17:53:40;;;;;;;9.10;8.38;;;;;;;24.49;62.68;154874.63;10383071;28;20042;-69
2023/09/11 17:58:42;;;;;;;9.63;8.73;;;;;;;24.23;63.66;154806.81;10382903;28;20053;-69
2023/09/11 18:03:45;;;;;;;9.95;8.52;;;;;;;24.01;64.46;154752.06;10382976;28;20518;-69
2023/09/11 18:08:47;;;;;;;9.90;9.10;;;;;;;24.11;64.38;154778.09;10381997;28;20053;-72
2023/09/11 18:13:52;;;;;;;12.07;10.68;;;;;;;24.02;64.49;154754.66;10383213;28;20042;-71
2023/09/11 18:18:53;;;;;;;12.48;11.20;;;;;;;23.68;65.03;154667.34;10382344;28;20050;-71
2023/09/11 18:23:55;;;;;;;19.52;16.73;;;;;;;23.46;66.11;154609.97;10382184;28;20042;-71
2023/09/11 18:29:10;;;;;;;19.45;17.45;;;;;;;23.42;66.12;154602.19;10381605;28;20099;-72
2023/09/11 18:34:12;;;;;;;20.13;18.10;;;;;;;23.41;65.34;154598.25;10380584;28;20069;-72
2023/09/11 18:39:14;;;;;;;13.65;12.43;;;;;;;23.35;65.65;154582.63;10380671;28;20517;-71
2023/09/11 18:44:24;;;;;;;14.40;12.95;;;;;;;23.23;64.93;154552.66;10380659;28;20034;-71
2023/09/11 18:49:28;;;;;;;9.98;9.07;;;;;;;23.04;65.46;154504.47;10380525;28;20468;-71
2023/09/11 18:54:30;;;;;;;9.70;8.70;;;;;;;22.87;66.69;154461.44;10360653;28;20049;-71
2023/09/11 18:59:32;;;;;;;8.57;7.70;;;;;;;22.75;66.89;154430.19;10379934;28;20046;-70
2023/09/11 19:04:33;;;;;;;8.40;7.50;;;;;;;22.72;67.69;154421.09;10378825;28;20038;-70
2023/09/11 19:09:35;;;;;;;7.65;7.05;;;;;;;22.45;68.64;154352.09;10379097;28;20072;-70
2023/09/11 19:14:37;;;;;;;7.70;7.10;;;;;;;22.39;68.12;154339.03;10379757;28;20042;-70
2023/09/11 19:19:39;;;;;;;6.90;6.28;;;;;;;22.20;67.37;154289.59;10379074;28;20397;-70
2023/09/11 19:24:41;;;;;;;15.35;7.05;;;;;;;22.29;66.81;154311.72;10378991;28;20117;-70
2023/09/11 19:29:43;;;;;;;6.97;6.05;;;;;;;22.26;66.73;154303.91;10378685;28;20093;-70
2023/09/11 19:34:45;;;;;;;6.60;6.00;;;;;;;22.15;68.13;154277.88;10378064;28;20038;-70
2023/09/11 19:39:46;;;;;;;6.50;5.90;;;;;;;22.18;69.11;154284.41;10378089;28;20048;-71
2023/09/11 19:44:48;;;;;;;6.60;5.90;;;;;;;22.00;69.22;154238.81;10377165;28;20117;-70
2023/09/11 19:49:50;;;;;;;6.70;6.10;;;;;;;21.65;70.65;154150.31;10376868;28;20041;-69
2023/09/11 19:54:52;;;;;;;7.18;6.47;;;;;;;21.59;72.18;154134.66;10377270;28;20049;-70
2023/09/11 19:59:54;;;;;;;6.68;6.07;;;;;;;21.44;72.84;154094.34;10376750;28;20052;-69
2023/09/11 20:04:56;;;;;;;8.80;7.30;;;;;;;21.47;73.63;154103.47;10376196;28;20037;-70
2023/09/11 20:10:01;;;;;;;8.55;7.55;;;;;;;21.50;73.27;154109.94;10376259;28;20045;-69
2023/09/11 20:15:03;;;;;;;6.90;6.35;;;;;;;21.42;73.69;154091.72;10376134;28;20050;-69
2023/09/11 20:20:07;;;;;;;7.38;6.68;;;;;;;21.12;75.04;154014.94;10375805;28;20042;-69
2023/09/11 20:25:09;;;;;;;7.55;6.95;;;;;;;20.89;75.98;153955.06;10375569;28;20041;-70
2023/09/11 20:30:12;;;;;;;8.15;7.45;;;;;;;20.77;76.22;153925.19;10357723;28;20058;-70
2023/09/11 20:35:14;;;;;;;8.10;7.30;;;;;;;20.68;76.64;153901.78;10374913;28;20441;-69
2023/09/11 20:40:16;;;;;;;8.40;7.70;;;;;;;20.82;76.56;153936.91;10375286;28;20457;-69
2023/09/11 20:45:18;;;;;;;8.00;7.40;;;;;;;20.50;76.52;153856.28;10374862;28;20072;-69
2023/09/11 20:50:20;;;;;;;8.02;7.22;;;;;;;20.42;77.95;153835.44;10374661;28;20042;-69
2023/09/11 20:55:21;;;;;;;8.55;7.85;;;;;;;20.63;78.87;153888.78;10374745;28;20038;-70
2023/09/11 21:00:24;;;;;;;7.70;7.13;;;;;;;20.60;76.81;153882.28;10374762;28;20133;-70
2023/09/11 21:05:26;;;;;;;7.15;6.55;;;;;;;20.28;78.15;153800.31;10374221;28;20042;-69
2023/09/11 21:10:27;;;;;;;7.78;7.07;;;;;;;20.21;79.34;153782.09;10374493;28;20073;-70
2023/09/11 21:15:29;;;;;;;7.50;6.95;;;;;;;20.13;78.99;153762.59;10373571;28;20133;-70
2023/09/11 21:20:31;;;;;;;7.82;7.22;;;;;;;20.23;77.45;153787.34;10374070;28;20045;-70
2023/09/11 21:25:33;;;;;;;7.43;6.72;;;;;;;19.95;78.29;153715.81;10374349;28;20042;-70
2023/09/11 21:30:35;;;;;;;7.28;6.78;;;;;;;19.79;78.63;153675.53;10373782;28;20113;-70
2023/09/11 21:35:37;;;;;;;7.68;6.97;;;;;;;20.01;78.46;153731.44;10373708;28;20092;-69
2023/09/11 21:40:38;;;;;;;6.05;5.65;;;;;;;19.72;79.36;153657.31;10356143;28;20056;-69
2023/09/11 21:45:42;;;;;;;7.00;6.50;;;;;;;19.60;80.32;153627.41;10356382;28;20049;-69
2023/09/11 21:50:44;;;;;;;6.88;6.32;;;;;;;19.56;80.30;153615.69;10373873;28;20054;-70
2023/09/11 21:55:46;;;;;;;6.55;6.05;;;;;;;19.60;81.07;153626.06;10373523;28;20475;-70
2023/09/11 22:00:51;;;;;;;7.57;6.65;;;;;;;19.37;80.01;153567.63;10374015;28;20049;-70
2023/09/11 22:05:52;;;;;;;6.85;6.18;;;;;;;19.50;79.38;153600.09;10373508;28;20500;-70
2023/09/11 22:10:54;;;;;;;6.15;5.65;;;;;;;19.30;79.50;153550.75;10373213;28;20050;-70
2023/09/11 22:15:56;;;;;;;5.70;5.25;;;;;;;19.03;80.37;153481.84;10373328;28;20038;-69
2023/09/11 22:20:58;;;;;;;5.75;5.32;;;;;;;19.04;80.26;153483.19;10372603;28;20042;-69
2023/09/11 22:25:59;;;;;;;6.75;6.20;;;;;;;19.19;79.98;153522.13;10374773;28;20069;-69
2023/09/11 22:31:01;;;;;;;6.07;5.50;;;;;;;18.98;80.96;153468.88;10380394;28;20045;-69
2023/09/11 22:36:04;;;;;;;6.03;5.53;;;;;;;19.00;80.79;153472.78;10363705;28;20041;-69
2023/09/11 22:41:05;;;;;;;5.80;5.30;;;;;;;18.69;81.79;153393.53;10380134;28;20046;-69
2023/09/11 22:46:07;;;;;;;6.53;6.03;;;;;;;18.61;82.89;153374.03;10379208;28;20446;-69
2023/09/11 22:51:09;;;;;;;6.10;5.60;;;;;;;18.60;83.33;153371.44;10379824;28;20056;-69
2023/09/11 22:56:11;;;;;;;6.28;5.78;;;;;;;18.54;83.36;153355.81;10361323;28;20042;-69
2023/09/11 23:01:17;;;;;;;6.15;5.57;;;;;;;18.46;84.20;153335.03;10378665;28;20050;-69
2023/09/11 23:06:28;;;;;;;6.50;6.00;;;;;;;18.36;84.68;153310.38;10378990;28;20041;-69